Aérodrome :
LOGIN :

S'inscrire | Disclaimer

   EN    FR    IT 

 










Légende :    VFR   VFR Marginal   IFR   IFR Intensif   IFR Très Intensif
Visi : 
Plafond : 
>= 8 km
>= 3000ft
5 à 8 km
1000 à 3000 ft
1500m à 5 km
500 à 1000 ft
800 à 1500m
200 à 500 ft
< 800m
< 200 ft
Symboles :   Orages  Brouillard  Fortes neiges  Fortes précipitations  Vent > 20 kt
SIGMETs :   Divers  Orages  Givrage  Turbulence  Onde Orograph.  Cendres Volcan.







- Altitude de l'aérodrome : 359 ft
- Code IATA : BVA
- Voir les cartes d'approche


LFOB - Beauvais

DERNIER METAR :
  • 120800Z AUTO 00000KT 1500 BR OVC002 M01/M01 Q1024 TEMPO 0200 FG VV///

METARs EXPIRÉS :
  • 120730Z AUTO 00000KT 1500 0750 R30/1200U R12/1900U BCFG VV/// M01/M01 Q1024 TEMPO 0200 FG
  • 120700Z AUTO 00000KT 1100 R30/1400D R12/1500D BR VV/// M01/M01 Q1024 TEMPO 0200 FG
  • 120630Z AUTO 08002KT 0700 0650 R30/0800U R12/1300D FZFG VV/// M01/M01 Q1024 TEMPO 0200 FG
  • 120600Z AUTO 07003KT 0600 0550 R30/0800N R12/0750N FZFG VV/// M00/M00 Q1023 TEMPO 0200 FG
  • 120530Z AUTO 07003KT 0500 R30/0650U R12/0650N FG VV/// 00/00 Q1023 TEMPO 0200 FG

TAF AMD TAF LFOB
Valide du 12 à 06h jusqu'au 13 à 06h UTC


120527Z 1206/1306 VRB02KT 2000 BR OVC002
TEMPO 1206/1210 0200 FG VV///
PROB40 1206/1210 FZFG
BECMG 1210/1212 4000 BR OVC006
BECMG 1212/1214 6000 NSW NSC
BECMG 1221/1224 07013KT 3000 BR OVC003
BECMG 1303/1306 OVC011
ATIS : +33 3 44 11 49 28
Pas de NOTAMs connus pour ce terrain.



MET'MAP, la Météo Aéronautique d'un coup d'oeil ! - Copyright ORBIFLY Décembre 2007 - Disclaimer

ORBIFLY MET'MAP TEAM :

Programmation & Développement : Alexandra Zaïnal
Conception & Développement : Baudouin d'Aumeries
Co-Programmation & Développement : Marc-Olivier Méhu
Soutien technique & logistique : Manuel Goepfert

Contact : metmap@orbifly.com




SOURCES & CREDITS :

   NOAA